createdAt,value
2018-12-06T00:00:29.616Z,8.00
2018-12-06T00:02:58.525Z,10.07
2018-12-06T00:05:27.428Z,13.20
2018-12-06T00:08:07.542Z,6.50
2018-12-06T00:10:36.447Z,8.47
2018-12-06T00:13:05.364Z,8.40
2018-12-06T00:15:34.276Z,29.20
2018-12-06T00:18:03.175Z,10.40
2018-12-06T00:20:32.513Z,14.83
2018-12-06T00:23:01.738Z,10.97
2018-12-06T00:25:30.666Z,8.50
2018-12-06T00:27:59.588Z,8.57
2018-12-06T00:30:37.246Z,10.57
2018-12-06T00:33:05.884Z,10.40
2018-12-06T00:35:34.776Z,13.10
2018-12-06T00:38:04.099Z,10.27
2018-12-06T00:40:33.425Z,11.03
2018-12-06T00:43:02.291Z,6.87
2018-12-06T00:45:31.185Z,10.90
2018-12-06T00:48:00.344Z,6.33
2018-12-06T00:50:29.267Z,8.93
2018-12-06T00:52:58.172Z,11.33
2018-12-06T00:55:27.055Z,10.50
2018-12-06T00:57:55.921Z,9.97
2018-12-06T01:00:24.894Z,7.57
2018-12-06T01:02:53.746Z,7.97
2018-12-06T01:05:23.258Z,12.33
2018-12-06T01:07:52.110Z,7.73
2018-12-06T01:10:21.400Z,12.33
2018-12-06T01:12:50.715Z,17.17
2018-12-06T01:15:19.592Z,11.80
2018-12-06T01:17:48.502Z,9.80
2018-12-06T01:20:17.385Z,9.30
2018-12-06T01:22:46.467Z,8.00
2018-12-06T01:25:15.608Z,9.90
2018-12-06T01:27:44.458Z,8.53
2018-12-06T01:30:13.768Z,10.40
2018-12-06T01:32:42.614Z,9.57
2018-12-06T01:35:11.459Z,11.67
2018-12-06T01:37:40.317Z,7.93
2018-12-06T01:40:09.580Z,7.60
2018-12-06T01:42:38.433Z,8.13
2018-12-06T01:45:07.870Z,7.10
2018-12-06T01:47:36.743Z,11.00
2018-12-06T01:50:06.229Z,9.90
2018-12-06T01:52:35.111Z,9.17
2018-12-06T01:55:04.410Z,7.70
2018-12-06T01:57:33.276Z,9.07
2018-12-06T02:00:02.099Z,8.70
2018-12-06T02:02:30.955Z,14.90
2018-12-06T02:04:59.895Z,10.77
2018-12-06T02:07:28.754Z,10.03
2018-12-06T02:09:57.640Z,9.97
2018-12-06T02:12:26.597Z,8.37
2018-12-06T02:14:55.563Z,8.90
2018-12-06T02:17:24.430Z,6.20
2018-12-06T02:19:53.516Z,10.73
2018-12-06T02:22:22.417Z,8.67
2018-12-06T02:24:51.303Z,8.80
2018-12-06T02:27:20.491Z,7.73
2018-12-06T02:29:54.269Z,11.20
2018-12-06T02:32:23.972Z,6.93
2018-12-06T02:34:52.826Z,13.23
2018-12-06T02:37:22.099Z,8.90
2018-12-06T02:39:50.965Z,8.27
2018-12-06T02:42:19.825Z,38.00
2018-12-06T02:44:48.938Z,38.80
2018-12-06T02:47:18.079Z,27.53
2018-12-06T02:49:46.955Z,20.33
2018-12-06T02:52:16.089Z,7.43
2018-12-06T02:54:44.935Z,9.27
2018-12-06T02:57:13.743Z,10.13
2018-12-06T02:59:42.577Z,10.30
2018-12-06T03:02:11.636Z,7.93
2018-12-06T03:04:40.474Z,10.47
2018-12-06T03:07:09.970Z,8.30
2018-12-06T03:09:39.446Z,9.23
2018-12-06T03:12:08.318Z,10.40
2018-12-06T03:14:37.399Z,8.07
2018-12-06T03:17:06.238Z,10.97
2018-12-06T03:19:35.495Z,9.80
2018-12-06T03:22:04.365Z,8.60
2018-12-06T03:24:33.213Z,5.43
2018-12-06T03:27:02.315Z,5.17
2018-12-06T03:29:31.202Z,7.97
2018-12-06T03:32:00.293Z,12.63
2018-12-06T03:34:29.163Z,12.77
2018-12-06T03:36:58.464Z,10.23
2018-12-06T03:39:27.317Z,9.20
2018-12-06T03:41:56.165Z,10.33
2018-12-06T03:44:24.997Z,9.10
2018-12-06T03:46:53.947Z,9.17
2018-12-06T03:49:23.105Z,6.23
2018-12-06T03:51:52.622Z,7.73
2018-12-06T03:54:21.502Z,8.23
2018-12-06T03:56:50.748Z,10.23
2018-12-06T03:59:19.631Z,10.70
2018-12-06T04:01:48.479Z,9.83
2018-12-06T04:04:17.352Z,7.10
2018-12-06T04:06:46.179Z,9.27
2018-12-06T04:09:15.034Z,12.33
2018-12-06T04:11:43.892Z,10.87
2018-12-06T04:14:12.926Z,8.97
2018-12-06T04:16:41.776Z,6.87
2018-12-06T04:19:10.887Z,9.07
2018-12-06T04:21:39.961Z,10.30
2018-12-06T04:24:08.789Z,7.57
2018-12-06T04:26:37.632Z,9.13
2018-12-06T04:29:06.922Z,7.50
2018-12-06T04:31:37.541Z,7.63
2018-12-06T04:34:06.413Z,7.90
2018-12-06T04:36:35.528Z,8.33
2018-12-06T04:39:07.313Z,10.27
2018-12-06T04:41:36.215Z,8.97
2018-12-06T04:44:05.077Z,7.33
2018-12-06T04:46:33.928Z,9.77
2018-12-06T04:49:02.785Z,11.13
2018-12-06T04:51:32.365Z,7.23
2018-12-06T04:54:01.254Z,11.43
2018-12-06T04:56:30.121Z,10.30
2018-12-06T04:58:58.985Z,12.93
2018-12-06T05:01:27.855Z,9.03
2018-12-06T05:03:56.745Z,14.43
2018-12-06T05:06:25.638Z,10.17
2018-12-06T05:08:54.500Z,9.87
2018-12-06T05:11:23.345Z,8.83
2018-12-06T05:13:52.236Z,9.10
2018-12-06T05:16:21.509Z,10.80
2018-12-06T05:18:50.618Z,12.47
2018-12-06T05:21:19.712Z,11.03
2018-12-06T05:23:48.587Z,10.53
2018-12-06T05:26:17.679Z,8.47
2018-12-06T05:28:46.551Z,10.63
2018-12-06T05:31:15.410Z,12.57
2018-12-06T05:33:44.325Z,12.83
2018-12-06T05:36:13.165Z,14.00
2018-12-06T05:38:42.012Z,9.50
2018-12-06T05:41:10.851Z,12.00
2018-12-06T05:43:39.687Z,12.97
2018-12-06T05:46:08.884Z,15.13
2018-12-06T05:48:37.727Z,11.37
2018-12-06T05:51:07.392Z,9.57
2018-12-06T05:53:36.233Z,13.83
2018-12-06T05:56:05.482Z,14.33
2018-12-06T05:58:34.345Z,13.73
2018-12-06T06:01:03.177Z,12.47
2018-12-06T06:03:32.084Z,11.90
2018-12-06T06:06:01.038Z,9.60
2018-12-06T06:08:29.869Z,9.80
2018-12-06T06:10:58.716Z,9.27
2018-12-06T06:13:27.963Z,12.30
2018-12-06T06:15:56.868Z,11.60
2018-12-06T06:18:25.755Z,13.50
2018-12-06T06:20:54.629Z,20.33
2018-12-06T06:23:23.484Z,14.53
2018-12-06T06:25:52.425Z,11.10
2018-12-06T06:28:21.360Z,15.27
2018-12-06T06:30:50.684Z,10.40
2018-12-06T06:33:19.780Z,9.07
2018-12-06T06:35:48.912Z,11.40
2018-12-06T06:38:18.031Z,9.73
2018-12-06T06:40:47.186Z,12.17
2018-12-06T06:43:16.164Z,12.10
2018-12-06T06:45:45.161Z,9.13
2018-12-06T06:48:14.303Z,11.23
2018-12-06T06:50:43.195Z,11.63
2018-12-06T06:53:12.044Z,13.67
2018-12-06T06:55:40.939Z,8.53
2018-12-06T06:58:09.845Z,7.67
2018-12-06T07:00:38.737Z,10.13
2018-12-06T07:03:08.075Z,10.33
2018-12-06T07:05:37.009Z,9.80
2018-12-06T07:08:41.129Z,11.20
2018-12-06T07:11:10.000Z,16.73
2018-12-06T07:13:38.917Z,11.03
2018-12-06T07:16:07.833Z,13.40
2018-12-06T07:18:36.737Z,11.77
2018-12-06T07:21:06.118Z,11.43
2018-12-06T07:23:35.844Z,13.83
2018-12-06T07:26:04.728Z,13.10
2018-12-06T07:28:33.607Z,10.53
2018-12-06T07:31:02.497Z,11.50
2018-12-06T07:33:31.371Z,11.87
2018-12-06T07:36:00.271Z,12.23
2018-12-06T07:38:29.508Z,14.10
2018-12-06T07:40:58.659Z,15.70
2018-12-06T07:43:27.624Z,13.07
2018-12-06T07:46:01.842Z,16.80
2018-12-06T07:48:30.755Z,13.60
2018-12-06T07:50:59.661Z,13.93
2018-12-06T07:53:28.568Z,11.70
2018-12-06T07:55:58.056Z,15.53
2018-12-06T07:58:26.959Z,15.80
2018-12-06T08:00:55.853Z,13.73
2018-12-06T08:03:25.126Z,9.70
2018-12-06T08:05:53.991Z,12.13
2018-12-06T08:08:22.902Z,11.67
2018-12-06T08:10:51.779Z,12.70
2018-12-06T08:13:21.279Z,11.27
2018-12-06T08:15:50.119Z,14.90
2018-12-06T08:18:19.395Z,12.63
2018-12-06T08:20:48.243Z,14.07
2018-12-06T08:23:17.099Z,11.93
2018-12-06T08:25:46.077Z,13.47
2018-12-06T08:28:15.589Z,12.10
2018-12-06T08:30:44.573Z,15.53
2018-12-06T08:33:13.662Z,13.30
2018-12-06T08:35:42.937Z,14.03
2018-12-06T08:38:12.385Z,12.40
2018-12-06T08:40:41.475Z,11.43
2018-12-06T08:43:10.359Z,14.07
2018-12-06T08:45:44.059Z,13.03
2018-12-06T08:48:14.058Z,9.33
2018-12-06T08:50:42.898Z,14.67
2018-12-06T08:53:11.735Z,10.70
2018-12-06T08:55:40.639Z,24.77
2018-12-06T08:58:09.512Z,38.00
2018-12-06T09:00:39.116Z,34.13
2018-12-06T09:03:07.975Z,12.70
2018-12-06T09:05:36.907Z,14.77
2018-12-06T09:08:06.544Z,16.23
2018-12-06T09:10:35.441Z,14.53
2018-12-06T09:13:04.746Z,14.20
2018-12-06T09:15:33.670Z,12.67
2018-12-06T09:18:04.409Z,14.83
2018-12-06T09:20:33.254Z,13.23
2018-12-06T09:23:02.569Z,14.17
2018-12-06T09:25:31.449Z,14.70
2018-12-06T09:28:00.332Z,17.23
2018-12-06T09:30:29.250Z,14.63
2018-12-06T09:32:58.139Z,16.57
2018-12-06T09:35:27.449Z,14.43
2018-12-06T09:37:56.559Z,16.77
2018-12-06T09:40:25.486Z,14.83
2018-12-06T09:42:54.408Z,15.53
2018-12-06T09:45:23.293Z,19.63
2018-12-06T09:47:52.592Z,18.10
2018-12-06T09:50:21.456Z,16.53
2018-12-06T09:52:50.362Z,16.93
2018-12-06T09:55:19.226Z,14.87
2018-12-06T09:57:48.098Z,15.30
2018-12-06T10:00:17.908Z,16.57
2018-12-06T10:02:46.780Z,20.23
2018-12-06T10:05:16.075Z,19.67
2018-12-06T10:07:44.952Z,17.40
2018-12-06T10:10:13.884Z,15.93
2018-12-06T10:13:09.465Z,19.90
2018-12-06T10:15:39.164Z,19.47
2018-12-06T10:18:08.467Z,15.80
2018-12-06T10:20:37.332Z,16.43
2018-12-06T10:23:06.196Z,15.43
2018-12-06T10:25:35.289Z,19.00
2018-12-06T10:28:04.142Z,19.87
2018-12-06T10:30:33.037Z,65.47
2018-12-06T10:33:02.139Z,22.33
2018-12-06T10:35:31.233Z,18.23
2018-12-06T10:38:00.072Z,15.33
2018-12-06T10:40:29.194Z,13.37
2018-12-06T10:42:58.056Z,18.37
2018-12-06T10:45:26.911Z,18.13
2018-12-06T10:47:56.333Z,15.53
2018-12-06T10:50:25.923Z,19.13
2018-12-06T10:52:54.771Z,16.20
2018-12-06T10:55:24.072Z,16.83
2018-12-06T10:57:53.045Z,18.67
2018-12-06T11:00:27.491Z,16.97
2018-12-06T11:03:01.690Z,20.13
2018-12-06T11:05:30.715Z,17.33
2018-12-06T11:07:59.593Z,22.27
2018-12-06T11:10:28.468Z,18.23
2018-12-06T11:12:57.384Z,18.10
2018-12-06T11:15:26.288Z,18.47
2018-12-06T11:17:55.182Z,21.67
2018-12-06T11:20:24.179Z,22.47
2018-12-06T11:22:53.041Z,22.67
2018-12-06T11:25:21.942Z,21.67
2018-12-06T11:27:50.799Z,23.77
2018-12-06T11:30:19.640Z,22.13
2018-12-06T11:32:48.507Z,25.97
2018-12-06T11:35:17.408Z,23.10
2018-12-06T11:37:46.309Z,22.80
2018-12-06T11:40:15.408Z,17.03
2018-12-06T11:42:44.379Z,21.73
2018-12-06T11:45:13.424Z,23.90
2018-12-06T11:47:42.317Z,22.37
2018-12-06T11:50:11.463Z,28.13
2018-12-06T11:52:40.333Z,21.40
2018-12-06T11:55:09.679Z,23.90
2018-12-06T11:57:38.561Z,21.67
2018-12-06T12:00:08.079Z,23.23
2018-12-06T12:02:36.955Z,26.53
2018-12-06T12:05:07.032Z,20.73
2018-12-06T12:07:35.875Z,21.13
2018-12-06T12:10:06.464Z,19.97
2018-12-06T12:12:35.331Z,19.30
2018-12-06T12:15:05.326Z,21.17
2018-12-06T12:17:34.220Z,19.23
2018-12-06T12:20:03.083Z,20.40
2018-12-06T12:22:32.013Z,19.23
2018-12-06T12:25:01.071Z,16.10
2018-12-06T12:27:29.960Z,14.53
2018-12-06T12:29:58.857Z,14.03
2018-12-06T12:32:27.743Z,16.93
2018-12-06T12:34:56.609Z,15.30
2018-12-06T12:37:25.531Z,17.87
2018-12-06T12:39:54.413Z,17.00
2018-12-06T12:42:23.251Z,15.77
2018-12-06T12:44:52.113Z,18.20
2018-12-06T12:47:21.008Z,17.77
2018-12-06T12:49:49.860Z,17.73
2018-12-06T12:52:18.704Z,17.90
2018-12-06T12:54:47.569Z,19.30
2018-12-06T12:57:16.447Z,16.27
2018-12-06T12:59:45.573Z,19.73
2018-12-06T13:02:14.481Z,19.07
2018-12-06T13:04:43.383Z,25.43
2018-12-06T13:07:13.647Z,19.30
2018-12-06T13:09:42.752Z,17.17
2018-12-06T13:12:11.823Z,19.67
2018-12-06T13:14:40.924Z,18.43
2018-12-06T13:17:09.829Z,18.33
2018-12-06T13:19:38.908Z,16.50
2018-12-06T13:22:08.253Z,20.57
2018-12-06T13:24:37.493Z,18.13
2018-12-06T13:27:06.943Z,21.33
2018-12-06T13:29:36.273Z,19.37
2018-12-06T13:32:05.331Z,17.23
2018-12-06T13:34:34.215Z,20.97
2018-12-06T13:37:03.321Z,19.57
2018-12-06T13:39:32.411Z,20.20
2018-12-06T13:42:01.272Z,20.67
2018-12-06T13:44:30.206Z,20.50
2018-12-06T13:46:59.074Z,17.67
2018-12-06T13:49:27.986Z,19.83
2018-12-06T13:51:56.862Z,24.33
2018-12-06T13:54:27.144Z,20.70
2018-12-06T13:56:56.318Z,20.10
2018-12-06T13:59:25.182Z,17.57
2018-12-06T14:01:54.051Z,23.00
2018-12-06T14:04:23.210Z,21.43
2018-12-06T14:06:52.080Z,18.87
2018-12-06T14:09:20.937Z,22.67
2018-12-06T14:11:49.768Z,25.77
2018-12-06T14:14:18.651Z,20.97
2018-12-06T14:16:47.519Z,27.50
2018-12-06T14:19:16.359Z,20.63
2018-12-06T14:21:45.265Z,25.23
2018-12-06T14:24:14.168Z,26.27
2018-12-06T14:26:43.391Z,25.87
2018-12-06T14:29:12.271Z,24.60
2018-12-06T14:31:41.158Z,25.20
2018-12-06T14:34:10.063Z,32.10
2018-12-06T14:36:38.951Z,28.77
2018-12-06T14:39:09.233Z,35.87
2018-12-06T14:41:38.060Z,35.93
2018-12-06T14:44:07.392Z,28.87
2018-12-06T14:46:36.263Z,35.07
2018-12-06T14:49:05.392Z,33.23
2018-12-06T14:51:34.441Z,30.73
2018-12-06T14:54:06.419Z,25.53
2018-12-06T14:56:35.289Z,22.60
2018-12-06T14:59:04.594Z,27.57
2018-12-06T15:01:33.685Z,25.23
2018-12-06T15:04:02.582Z,26.00
2018-12-06T15:06:37.569Z,26.57
2018-12-06T15:09:02.852Z,24.90
2018-12-06T15:11:31.663Z,26.23
2018-12-06T15:14:00.611Z,25.77
2018-12-06T15:16:29.490Z,25.93
2018-12-06T15:18:58.336Z,25.63
2018-12-06T15:21:27.224Z,23.50
2018-12-06T15:23:56.139Z,22.30
2018-12-06T15:26:25.335Z,23.67
2018-12-06T15:28:54.186Z,25.40
2018-12-06T15:31:23.056Z,25.33
2018-12-06T15:33:51.968Z,20.93
2018-12-06T15:36:20.825Z,22.93
2018-12-06T15:38:50.089Z,21.57
2018-12-06T15:41:18.928Z,22.00
2018-12-06T15:43:50.782Z,23.70
2018-12-06T15:46:20.083Z,21.20
2018-12-06T15:48:49.033Z,20.47
2018-12-06T15:51:17.907Z,21.13
2018-12-06T15:53:46.989Z,22.03
2018-12-06T15:56:15.838Z,22.63
2018-12-06T15:58:44.747Z,24.73
2018-12-06T16:01:14.060Z,24.70
2018-12-06T16:03:43.032Z,26.97
2018-12-06T16:06:11.895Z,28.57
2018-12-06T16:08:40.940Z,25.57
2018-12-06T16:11:09.812Z,23.67
2018-12-06T16:13:39.494Z,24.63
2018-12-06T16:16:09.423Z,24.80
2018-12-06T16:18:38.330Z,23.83
2018-12-06T16:21:07.237Z,23.20
2018-12-06T16:23:36.185Z,22.07
2018-12-06T16:26:05.650Z,24.97
2018-12-06T16:28:34.586Z,23.27
2018-12-06T16:31:03.493Z,28.33
2018-12-06T16:33:32.978Z,27.73
2018-12-06T16:36:02.101Z,19.80
2018-12-06T16:38:31.403Z,22.67
2018-12-06T16:41:00.318Z,25.60
2018-12-06T16:43:29.236Z,26.67
2018-12-06T16:45:58.189Z,23.43
2018-12-06T16:48:27.200Z,28.47
2018-12-06T16:50:56.081Z,23.60
2018-12-06T16:53:25.047Z,26.83
2018-12-06T16:55:54.092Z,27.57
2018-12-06T16:58:23.465Z,25.93
2018-12-06T17:00:52.364Z,27.47
2018-12-06T17:03:21.255Z,24.87
2018-12-06T17:05:50.127Z,25.33
2018-12-06T17:08:19.016Z,25.27
2018-12-06T17:10:47.927Z,27.23
2018-12-06T17:13:17.106Z,26.17
2018-12-06T17:15:46.404Z,26.77
2018-12-06T17:18:15.308Z,25.47
2018-12-06T17:20:44.186Z,25.30
2018-12-06T17:23:13.075Z,27.37
2018-12-06T17:25:41.960Z,25.23
2018-12-06T17:28:10.864Z,26.83
2018-12-06T17:30:39.749Z,28.13
2018-12-06T17:33:08.949Z,23.80
2018-12-06T17:35:38.074Z,25.20
2018-12-06T17:38:06.992Z,26.83
2018-12-06T17:40:35.943Z,21.97
2018-12-06T17:43:04.962Z,23.20
2018-12-06T17:45:34.131Z,24.80
2018-12-06T17:48:03.017Z,23.87
2018-12-06T17:50:32.381Z,22.00
2018-12-06T17:53:01.306Z,20.90
2018-12-06T17:55:30.189Z,23.03
2018-12-06T17:57:59.076Z,19.90
2018-12-06T18:00:27.965Z,23.00
2018-12-06T18:02:57.164Z,20.47
2018-12-06T18:05:26.067Z,22.70
2018-12-06T18:07:55.304Z,20.67
2018-12-06T18:10:24.836Z,18.80
2018-12-06T18:12:53.705Z,18.87
2018-12-06T18:15:23.817Z,16.50
2018-12-06T18:17:52.769Z,19.37
2018-12-06T18:20:21.663Z,19.83
2018-12-06T18:22:51.225Z,18.47
2018-12-06T18:25:20.071Z,19.70
2018-12-06T18:27:48.949Z,20.10
2018-12-06T18:30:18.863Z,18.07
2018-12-06T18:32:47.738Z,16.70
2018-12-06T18:35:16.575Z,18.33
2018-12-06T18:37:45.434Z,18.93
2018-12-06T18:40:14.708Z,19.97
2018-12-06T18:42:43.743Z,19.20
2018-12-06T18:45:13.024Z,20.00
2018-12-06T18:47:41.926Z,19.07
2018-12-06T18:50:11.219Z,20.23
2018-12-06T18:52:40.105Z,19.90
2018-12-06T18:55:08.975Z,21.07
2018-12-06T18:57:37.888Z,19.73
2018-12-06T19:00:09.271Z,17.63
2018-12-06T19:02:38.305Z,19.30
2018-12-06T19:05:07.787Z,20.20
2018-12-06T19:07:36.643Z,16.77
2018-12-06T19:10:06.260Z,16.57
2018-12-06T19:12:35.131Z,14.27
2018-12-06T19:15:05.059Z,14.83
2018-12-06T19:17:34.136Z,14.53
2018-12-06T19:20:03.014Z,13.53
2018-12-06T19:22:31.867Z,15.20
2018-12-06T19:25:01.137Z,13.70
2018-12-06T19:27:30.222Z,15.40
2018-12-06T19:29:59.131Z,13.60
2018-12-06T19:32:28.190Z,13.90
2018-12-06T19:34:57.398Z,15.97
2018-12-06T19:37:26.274Z,15.63
2018-12-06T19:39:55.167Z,15.03
2018-12-06T19:42:24.026Z,14.70
2018-12-06T19:44:52.922Z,14.40
2018-12-06T19:47:22.185Z,12.77
2018-12-06T19:49:51.163Z,13.87
2018-12-06T19:52:20.419Z,13.30
2018-12-06T19:54:49.357Z,13.63
2018-12-06T19:57:18.255Z,14.20
2018-12-06T19:59:47.132Z,18.30
2018-12-06T20:02:16.009Z,14.43
2018-12-06T20:04:44.871Z,13.10
2018-12-06T20:07:14.200Z,13.00
2018-12-06T20:09:43.416Z,13.27
2018-12-06T20:12:12.719Z,15.07
2018-12-06T20:14:41.806Z,15.47
2018-12-06T20:17:10.704Z,20.93
2018-12-06T20:19:39.603Z,12.90
2018-12-06T20:22:08.486Z,13.00
2018-12-06T20:24:37.358Z,14.00
2018-12-06T20:27:06.713Z,14.10
2018-12-06T20:29:35.911Z,14.93
2018-12-06T20:32:05.182Z,15.27
2018-12-06T20:34:34.048Z,13.17
2018-12-06T20:37:02.919Z,17.13
2018-12-06T20:39:31.779Z,12.77
2018-12-06T20:42:00.637Z,15.73
2018-12-06T20:44:29.514Z,13.40
2018-12-06T20:46:58.371Z,13.70
2018-12-06T20:49:27.226Z,12.37
2018-12-06T20:51:56.099Z,12.03
2018-12-06T20:54:24.960Z,12.70
2018-12-06T20:56:55.139Z,12.00
2018-12-06T20:59:24.293Z,12.20
2018-12-06T21:01:54.900Z,11.63
2018-12-06T21:04:24.060Z,12.53
2018-12-06T21:06:52.932Z,12.13
2018-12-06T21:09:21.808Z,12.87
2018-12-06T21:11:50.725Z,12.83
2018-12-06T21:14:22.256Z,14.23
2018-12-06T21:16:50.552Z,17.17
2018-12-06T21:19:19.621Z,16.33
2018-12-06T21:21:48.538Z,11.73
2018-12-06T21:24:17.456Z,13.87
2018-12-06T21:26:46.601Z,11.73
2018-12-06T21:29:15.509Z,11.53
2018-12-06T21:31:44.408Z,11.50
2018-12-06T21:34:13.716Z,12.53
2018-12-06T21:36:43.268Z,12.20
2018-12-06T21:39:12.195Z,12.27
2018-12-06T21:41:41.109Z,10.93
2018-12-06T21:44:10.008Z,11.43
2018-12-06T21:46:38.884Z,12.03
2018-12-06T21:49:08.180Z,10.60
2018-12-06T21:51:37.312Z,11.10
2018-12-06T21:54:06.584Z,10.97
2018-12-06T21:56:35.542Z,10.23
2018-12-06T21:59:04.886Z,12.10
2018-12-06T22:01:33.765Z,11.53
2018-12-06T22:04:03.031Z,10.57
2018-12-06T22:06:31.931Z,10.50
2018-12-06T22:09:01.319Z,9.90
2018-12-06T22:11:30.163Z,10.33
2018-12-06T22:13:59.030Z,10.43
2018-12-06T22:16:27.893Z,10.13
2018-12-06T22:18:56.752Z,11.77
2018-12-06T22:21:25.612Z,10.70
2018-12-06T22:23:54.486Z,11.20
2018-12-06T22:26:23.338Z,11.03
2018-12-06T22:28:52.180Z,10.43
2018-12-06T22:31:21.047Z,10.40
2018-12-06T22:33:50.011Z,12.67
2018-12-06T22:36:18.829Z,12.50
2018-12-06T22:38:47.687Z,10.87
2018-12-06T22:41:16.528Z,10.97
2018-12-06T22:43:45.629Z,11.30
2018-12-06T22:46:14.566Z,11.57
2018-12-06T22:48:43.428Z,11.07
2018-12-06T22:51:12.247Z,11.63
2018-12-06T22:53:41.111Z,11.43
2018-12-06T22:56:10.697Z,11.60
2018-12-06T22:58:39.575Z,13.03
2018-12-06T23:01:10.478Z,16.67
2018-12-06T23:03:39.339Z,12.37
2018-12-06T23:06:08.949Z,12.27
2018-12-06T23:08:38.274Z,12.43
2018-12-06T23:11:07.138Z,12.27
2018-12-06T23:13:36.030Z,13.37
2018-12-06T23:16:05.331Z,11.97
2018-12-06T23:18:34.199Z,12.13
2018-12-06T23:21:03.093Z,12.90
2018-12-06T23:23:32.028Z,14.97
2018-12-06T23:26:00.950Z,12.87
2018-12-06T23:28:30.267Z,13.53
2018-12-06T23:30:59.169Z,12.87
2018-12-06T23:33:32.013Z,12.77
2018-12-06T23:35:58.960Z,13.60
2018-12-06T23:38:28.271Z,13.87
2018-12-06T23:40:57.849Z,13.77
2018-12-06T23:43:26.772Z,13.03
2018-12-06T23:45:55.704Z,12.10
2018-12-06T23:48:24.600Z,13.20
2018-12-06T23:51:00.701Z,12.50
2018-12-06T23:53:29.783Z,13.33
2018-12-06T23:55:58.683Z,11.67
2018-12-06T23:58:27.579Z,12.27
